Hyalite Weather Station

This weather station provides temperature, wind speed, gust or max wind speed, and wind direction at 9982ft near the summit of Flanders Mountain. This data can be used with temperature and precipitation data from the Shower Falls SNOTEL site. If the data has not been updated recently you can view it directly on datagarrison.com

Elevation
9982ft
Jump to table bottom
Date Time Temperature
deg F
RH, % Wind Speed Wind Gust Wind Direction
04/19/18 23:00 24.8 74 2 11 N - 3
04/19/18 22:00 24.7 75 2 15 NE - 51
04/19/18 21:00 26.0 72 2 11 NE - 58
04/19/18 20:00 25.6 80 1 8 S - 190
04/19/18 19:00 27.4 74 2 9 N - 344
04/19/18 18:00 29.5 70 1 8 NW - 305
04/19/18 17:00 29.8 64 2 9 N - 14
04/19/18 16:00 31.3 58 2 7 W - 264
04/19/18 15:00 35.4 54 2 5 N - 338
04/19/18 14:00 32.8 50 2 10 W - 261
04/19/18 13:00 33.8 46 3 14 SW - 206
04/19/18 12:00 32.2 39 3 15 SE - 147
04/19/18 11:00 33.0 41 3 14 S - 161
04/19/18 10:00 29.5 42 6 20 S - 168
04/19/18 09:00 28.6 42 4 19 SE - 122
04/19/18 08:00 25.3 45 4 17 S - 167
04/19/18 07:00 23.8 45 9 18 S - 167
04/19/18 06:00 26.1 33 14 21 S - 201
04/19/18 05:00 24.8 39 16 24 S - 197
04/19/18 04:00 23.8 43 14 25 S - 188
04/19/18 03:00 22.2 49 12 23 S - 175
04/19/18 02:00 20.4 53 13 23 S - 185
04/19/18 01:00 22.2 47 13 24 S - 197
04/19/18 00:00 22.0 48 11 21 S - 188
04/18/18 23:00 22.0 52 11 20 SW - 211
04/18/18 22:00 21.4 49 9 16 SW - 205
04/18/18 21:00 22.2 50 11 20 SW - 205
04/18/18 20:00 22.9 50 12 20 SW - 211
04/18/18 19:00 23.6 46 8 18 S - 198
04/18/18 18:00 25.8 50 5 18 S - 159
04/18/18 17:00 26.3 51 5 17 S - 187
04/18/18 16:00 26.7 56 6 14 S - 198
04/18/18 15:00 25.6 63 4 12 SW - 218
04/18/18 14:00 26.4 68 3 13 SW - 241
04/18/18 13:00 21.9 74 6 14 SW - 241
04/18/18 12:00 18.4 81 9 19 SW - 232
04/18/18 11:00 16.8 88 11 20 SW - 227
04/18/18 10:00 14.3 93 14 24 SW - 233
04/18/18 09:00 13.0 93 12 27 SW - 232
04/18/18 08:00 12.1 93 9 14 SW - 234
04/18/18 07:00 11.3 93 8 13 SW - 240
04/18/18 06:00 10.0 93 9 16 W - 248
04/18/18 05:00 10.3 93 10 19 W - 257
04/18/18 04:00 10.1 93 12 19 W - 251
04/18/18 03:00 10.6 93 6 12 W - 267
04/18/18 02:00 11.0 93 7 17 W - 270
04/18/18 01:00 11.4 93 8 15 W - 279
04/18/18 00:00 11.9 93 10 20 W - 271
04/17/18 23:00 13.0 94 12 20 W - 271
04/17/18 22:00 13.3 94 15 26 W - 260
https://datagarrison.com/users/300034012539980/300234063416550/temp/300234063416550_live.txt